createdAt,value
2022-08-16T00:02:33.363Z,99105.66
2022-08-16T00:05:00.779Z,99119.41
2022-08-16T00:07:29.500Z,99126.72
2022-08-16T00:09:58.693Z,99119.25
2022-08-16T00:12:28.889Z,99091.19
2022-08-16T00:14:57.352Z,99094.19
2022-08-16T00:17:27.046Z,99050.66
2022-08-16T00:19:55.713Z,99098.16
2022-08-16T00:22:24.967Z,99091.09
2022-08-16T00:24:54.467Z,99092.59
2022-08-16T00:27:22.841Z,99106.22
2022-08-16T00:30:08.841Z,99112.22
2022-08-16T00:32:40.164Z,99123.66
2022-08-16T00:35:15.080Z,99130.16
2022-08-16T00:37:57.868Z,99119.88
2022-08-16T00:40:50.885Z,99114.63
2022-08-16T00:43:43.441Z,99125.66
2022-08-16T00:46:22.470Z,99129.63
2022-08-16T00:48:58.556Z,99090.63
2022-08-16T00:51:29.404Z,99135.66
2022-08-16T00:53:57.280Z,99099.59
2022-08-16T00:56:56.644Z,99133.91
2022-08-16T00:59:16.183Z,99128.84
2022-08-16T01:01:44.748Z,99101.34
2022-08-16T01:04:30.104Z,99101.16
2022-08-16T01:07:04.962Z,99113.88
2022-08-16T01:09:38.489Z,99128.47
2022-08-16T01:12:10.984Z,99103.63
2022-08-16T01:14:57.296Z,99129.72
2022-08-16T01:17:26.564Z,99101.28
2022-08-16T01:19:59.043Z,99108.19
2022-08-16T01:22:52.538Z,99147.56
2022-08-16T01:25:33.931Z,99143.38
2022-08-16T01:28:04.957Z,99145.88
2022-08-16T01:30:39.989Z,99145.63
2022-08-16T01:33:19.771Z,99143.28
2022-08-16T01:36:01.069Z,99113.06
2022-08-16T01:38:33.191Z,99139.41
2022-08-16T01:41:13.279Z,99137.50
2022-08-16T01:43:53.474Z,99107.16
2022-08-16T01:46:39.495Z,99140.75
2022-08-16T01:49:21.761Z,99116.81
2022-08-16T01:51:59.587Z,99066.09
2022-08-16T01:54:39.981Z,99112.03
2022-08-16T01:57:07.391Z,99128.91
2022-08-16T01:59:39.904Z,99114.94
2022-08-16T02:02:27.540Z,99092.31
2022-08-16T02:04:57.558Z,99108.88
2022-08-16T02:07:25.911Z,99121.16
2022-08-16T02:09:58.577Z,99137.38
2022-08-16T02:12:49.483Z,99133.16
2022-08-16T02:15:25.525Z,99139.81
2022-08-16T02:17:57.271Z,99136.50
2022-08-16T02:20:27.778Z,99143.88
2022-08-16T02:22:57.412Z,99084.38
2022-08-16T02:25:25.236Z,99107.81
2022-08-16T02:28:12.036Z,99097.44
2022-08-16T02:30:50.006Z,99096.22
2022-08-16T02:33:18.295Z,99033.25
2022-08-16T02:35:54.470Z,99115.22
2022-08-16T02:38:28.904Z,99117.44
2022-08-16T02:40:59.063Z,99145.91
2022-08-16T02:43:29.083Z,99126.34
2022-08-16T02:46:01.631Z,99065.25
2022-08-16T02:48:31.109Z,99098.28
2022-08-16T02:51:06.236Z,99038.53
2022-08-16T02:53:43.250Z,99132.69
2022-08-16T02:56:14.869Z,99131.03
2022-08-16T02:58:44.025Z,99063.94
2022-08-16T03:01:25.310Z,99117.25
2022-08-16T03:04:39.406Z,99092.50
2022-08-16T03:06:47.858Z,99121.63
2022-08-16T03:09:20.844Z,99091.88
2022-08-16T03:11:52.252Z,99102.50
2022-08-16T03:14:21.393Z,99092.88
2022-08-16T03:16:59.446Z,99052.78
2022-08-16T03:19:42.225Z,99099.63
2022-08-16T03:22:28.184Z,99105.72
2022-08-16T03:25:01.147Z,99078.13
2022-08-16T03:27:32.412Z,99111.31
2022-08-16T03:30:17.356Z,99105.63
2022-08-16T03:32:51.348Z,99078.63
2022-08-16T03:35:22.057Z,99091.75
2022-08-16T03:38:33.481Z,99102.25
2022-08-16T03:41:00.593Z,99085.50
2022-08-16T03:43:51.632Z,99005.13
2022-08-16T03:46:44.505Z,99036.59
2022-08-16T03:49:11.402Z,99058.66
2022-08-16T03:51:40.516Z,99058.47
2022-08-16T03:54:13.001Z,99067.22
2022-08-16T03:56:56.938Z,99100.66
2022-08-16T03:59:24.254Z,99065.28
2022-08-16T04:01:53.657Z,99108.38
2022-08-16T04:04:32.236Z,99079.25
2022-08-16T04:06:59.598Z,99074.88
2022-08-16T04:09:26.400Z,99068.53
2022-08-16T04:11:53.136Z,99060.75
2022-08-16T04:14:33.146Z,99077.09
2022-08-16T04:17:01.830Z,99078.53
2022-08-16T04:19:35.338Z,99089.41
2022-08-16T04:22:02.960Z,99104.28
2022-08-16T04:24:42.684Z,99097.75
2022-08-16T04:27:21.278Z,99106.66
2022-08-16T04:29:47.951Z,99094.03
2022-08-16T04:32:26.572Z,99084.47
2022-08-16T04:34:53.895Z,99093.56
2022-08-16T04:37:21.872Z,99087.78
2022-08-16T04:39:55.615Z,99116.91
2022-08-16T04:42:26.519Z,99102.78
2022-08-16T04:44:58.309Z,99104.50
2022-08-16T04:47:33.296Z,99090.31
2022-08-16T04:50:18.120Z,99120.16
2022-08-16T04:52:59.238Z,99123.41
2022-08-16T04:55:37.631Z,99112.06
2022-08-16T04:58:43.711Z,99113.94
2022-08-16T05:00:56.416Z,99144.19
2022-08-16T05:03:23.993Z,99135.03
2022-08-16T05:05:59.131Z,99122.69
2022-08-16T05:08:32.816Z,99038.69
2022-08-16T05:11:16.143Z,99152.13
2022-08-16T05:13:47.146Z,99133.63
2022-08-16T05:16:27.047Z,99157.59
2022-08-16T05:19:02.239Z,99161.63
2022-08-16T05:21:37.987Z,99166.88
2022-08-16T05:24:07.824Z,99149.84
2022-08-16T05:26:43.283Z,99151.06
2022-08-16T05:29:16.971Z,99160.66
2022-08-16T05:32:01.338Z,99148.59
2022-08-16T05:34:29.021Z,99145.59
2022-08-16T05:36:57.346Z,99166.63
2022-08-16T05:39:31.252Z,99157.31
2022-08-16T05:42:00.498Z,99149.25
2022-08-16T05:44:27.192Z,99166.97
2022-08-16T05:47:00.183Z,99172.94
2022-08-16T05:49:38.364Z,99163.03
2022-08-16T05:52:11.585Z,99121.81
2022-08-16T05:54:47.313Z,99173.13
2022-08-16T05:57:18.605Z,99167.59
2022-08-16T05:59:47.506Z,99169.69
2022-08-16T06:02:18.980Z,99174.84
2022-08-16T06:04:46.243Z,99150.66
2022-08-16T06:07:26.714Z,99126.31
2022-08-16T06:10:14.725Z,99107.13
2022-08-16T06:12:59.176Z,99161.41
2022-08-16T06:15:26.044Z,99151.13
2022-08-16T06:17:53.851Z,99176.44
2022-08-16T06:20:35.107Z,99120.84
2022-08-16T06:23:17.285Z,99150.31
2022-08-16T06:26:10.718Z,99147.28
2022-08-16T06:28:41.844Z,99127.50
2022-08-16T06:31:15.115Z,99168.88
2022-08-16T06:33:46.076Z,99135.72
2022-08-16T06:36:16.948Z,99164.38
2022-08-16T06:38:56.763Z,99137.41
2022-08-16T06:41:42.289Z,99144.69
2022-08-16T06:44:20.730Z,99168.94
2022-08-16T06:46:50.353Z,99154.13
2022-08-16T06:49:18.136Z,99153.88
2022-08-16T06:51:48.418Z,99153.38
2022-08-16T06:54:20.983Z,99136.16
2022-08-16T06:56:47.723Z,99130.75
2022-08-16T06:59:25.633Z,99177.63
2022-08-16T07:01:58.121Z,99162.81
2022-08-16T07:04:32.932Z,99180.91
2022-08-16T07:07:11.338Z,99151.47
2022-08-16T07:09:41.651Z,99179.47
2022-08-16T07:12:08.845Z,99178.00
2022-08-16T07:14:40.522Z,99187.13
2022-08-16T07:17:08.472Z,99174.13
2022-08-16T07:20:03.693Z,99182.53
2022-08-16T07:22:39.831Z,99152.88
2022-08-16T07:25:31.231Z,99187.41
2022-08-16T07:27:59.523Z,99166.44
2022-08-16T07:30:39.251Z,99181.25
2022-08-16T07:33:41.277Z,99188.44
2022-08-16T07:36:09.897Z,99134.06
2022-08-16T07:38:42.325Z,99164.50
2022-08-16T07:41:11.041Z,99180.59
2022-08-16T07:43:43.539Z,99157.56
2022-08-16T07:46:37.748Z,99171.50
2022-08-16T07:49:04.712Z,99099.94
2022-08-16T07:51:39.714Z,99128.91
2022-08-16T07:54:20.718Z,99144.66
2022-08-16T07:56:57.945Z,99156.13
2022-08-16T07:59:26.053Z,99166.72
2022-08-16T08:02:12.254Z,99137.53
2022-08-16T08:04:40.697Z,99140.47
2022-08-16T08:07:08.964Z,99154.56
2022-08-16T08:09:36.702Z,99160.97
2022-08-16T08:12:31.394Z,99124.66
2022-08-16T08:14:57.391Z,99166.59
2022-08-16T08:17:24.567Z,99145.81
2022-08-16T08:20:12.507Z,99169.34
2022-08-16T08:22:39.403Z,99156.38
2022-08-16T08:25:09.830Z,99133.47
2022-08-16T08:27:42.376Z,99149.72
2022-08-16T08:30:52.249Z,99125.47
2022-08-16T08:33:00.794Z,99143.88
2022-08-16T08:35:35.577Z,99128.84
2022-08-16T08:38:04.246Z,99178.34
2022-08-16T08:40:33.573Z,99140.19
2022-08-16T08:43:12.071Z,99135.09
2022-08-16T08:45:53.096Z,99181.03
2022-08-16T08:48:33.863Z,99186.56
2022-08-16T08:51:08.742Z,99089.69
2022-08-16T08:53:43.121Z,99164.50
2022-08-16T08:56:22.940Z,99164.59
2022-08-16T08:58:58.929Z,99188.06
2022-08-16T09:01:42.988Z,99175.88
2022-08-16T09:04:29.932Z,99190.34
2022-08-16T09:06:58.544Z,99107.84
2022-08-16T09:09:33.141Z,99166.84
2022-08-16T09:12:06.318Z,99195.19
2022-08-16T09:14:50.826Z,99160.69
2022-08-16T09:17:45.391Z,99115.25
2022-08-16T09:20:14.060Z,99158.13
2022-08-16T09:22:42.560Z,99180.13
2022-08-16T09:25:12.348Z,99186.78
2022-08-16T09:27:56.598Z,99189.59
2022-08-16T09:30:33.286Z,99143.50
2022-08-16T09:33:39.926Z,99138.09
2022-08-16T09:36:12.132Z,99180.94
2022-08-16T09:38:59.992Z,99170.69
2022-08-16T09:41:28.169Z,99167.00
2022-08-16T09:44:00.102Z,99143.66
2022-08-16T09:46:49.200Z,99180.81
2022-08-16T09:49:19.719Z,99165.88
2022-08-16T09:51:48.251Z,99166.63
2022-08-16T09:54:20.964Z,99135.13
2022-08-16T09:56:52.137Z,99157.50
2022-08-16T09:59:22.790Z,99174.59
2022-08-16T10:01:51.101Z,99155.66
2022-08-16T10:04:28.224Z,99155.31
2022-08-16T10:09:44.834Z,99132.28
2022-08-16T10:12:55.813Z,99138.63
2022-08-16T10:15:24.567Z,99175.75
2022-08-16T10:18:01.175Z,99161.66
2022-08-16T10:20:32.547Z,99136.28
2022-08-16T10:23:06.915Z,99160.00
2022-08-16T10:27:16.667Z,99161.03
2022-08-16T10:28:29.301Z,99165.19
2022-08-16T10:30:59.710Z,99097.13
2022-08-16T10:33:29.467Z,99161.91
2022-08-16T10:35:57.667Z,99148.00
2022-08-16T10:38:27.898Z,99138.22
2022-08-16T10:40:55.043Z,99142.56
2022-08-16T10:43:23.349Z,99146.47
2022-08-16T10:45:57.232Z,99151.94
2022-08-16T10:48:28.846Z,99132.25
2022-08-16T10:51:00.133Z,99150.78
2022-08-16T10:53:32.784Z,99118.50
2022-08-16T10:56:02.651Z,99152.09
2022-08-16T10:58:34.487Z,99137.69
2022-08-16T11:03:54.118Z,99156.22
2022-08-16T11:06:26.823Z,99148.03
2022-08-16T11:14:29.150Z,99155.13
2022-08-16T11:17:09.318Z,99156.88
2022-08-16T11:22:47.990Z,99161.59
2022-08-16T11:28:36.148Z,99153.06
2022-08-16T11:30:59.458Z,99129.34
2022-08-16T11:36:29.697Z,99111.34
2022-08-16T11:39:00.697Z,99151.13
2022-08-16T11:41:29.434Z,99125.22
2022-08-16T11:43:59.325Z,99103.59
2022-08-16T11:46:44.814Z,99139.69
2022-08-16T11:49:14.345Z,99136.69
2022-08-16T11:51:44.302Z,99112.47
2022-08-16T11:54:20.582Z,99140.72
2022-08-16T11:56:52.386Z,99104.84
2022-08-16T11:59:40.018Z,99109.50
2022-08-16T12:02:31.564Z,99138.66
2022-08-16T12:04:55.880Z,99115.00
2022-08-16T12:07:23.527Z,99098.78
2022-08-16T12:09:53.204Z,99135.97
2022-08-16T12:12:20.951Z,99137.91
2022-08-16T12:14:54.635Z,99068.75
2022-08-16T12:17:31.500Z,99101.63
2022-08-16T12:20:00.475Z,99099.94
2022-08-16T12:22:28.061Z,99083.16
2022-08-16T12:24:55.375Z,99129.38
2022-08-16T12:27:24.583Z,99131.72
2022-08-16T12:29:58.444Z,99120.53
2022-08-16T12:32:45.886Z,99104.97
2022-08-16T12:35:16.022Z,99119.88
2022-08-16T12:37:46.114Z,99121.06
2022-08-16T12:40:24.975Z,99118.06
2022-08-16T12:42:59.703Z,99100.88
2022-08-16T12:45:31.159Z,99118.63
2022-08-16T12:48:34.534Z,99102.53
2022-08-16T12:51:04.442Z,99124.09
2022-08-16T12:53:36.018Z,99068.53
2022-08-16T12:56:07.536Z,99117.47
2022-08-16T12:58:50.381Z,99108.38
2022-08-16T13:01:22.500Z,99089.59
2022-08-16T13:03:59.105Z,99106.94
2022-08-16T13:06:33.409Z,99114.94
2022-08-16T13:09:02.470Z,99100.28
2022-08-16T13:11:41.535Z,99082.72
2022-08-16T13:14:31.035Z,99037.22
2022-08-16T13:17:02.589Z,99110.91
2022-08-16T13:19:49.787Z,99115.44
2022-08-16T13:22:19.681Z,99109.66
2022-08-16T13:24:47.291Z,99113.63
2022-08-16T13:27:14.006Z,99112.47
2022-08-16T13:29:44.134Z,99090.25
2022-08-16T13:32:39.579Z,99109.41
2022-08-16T13:35:01.135Z,99052.06
2022-08-16T13:37:33.473Z,99090.66
2022-08-16T13:40:07.731Z,99097.56
2022-08-16T13:42:41.413Z,99104.16
2022-08-16T13:45:20.484Z,99100.91
2022-08-16T13:47:55.816Z,99101.63
2022-08-16T13:50:31.177Z,99068.41
2022-08-16T13:53:13.494Z,99085.22
2022-08-16T13:55:42.043Z,99059.16
2022-08-16T13:58:35.070Z,99084.63
2022-08-16T14:00:59.670Z,99079.28
2022-08-16T14:03:29.090Z,99078.34
2022-08-16T14:05:59.899Z,99077.72
2022-08-16T14:08:31.888Z,99082.13
2022-08-16T14:10:59.111Z,99081.56
2022-08-16T14:13:25.829Z,99063.84
2022-08-16T14:15:55.265Z,99079.63
2022-08-16T14:18:22.501Z,99001.16
2022-08-16T14:20:58.472Z,99067.28
2022-08-16T14:23:25.355Z,99020.78
2022-08-16T14:25:53.965Z,99017.59
2022-08-16T14:28:23.500Z,99060.31
2022-08-16T14:30:50.580Z,99041.31
2022-08-16T14:33:18.469Z,99057.22
2022-08-16T14:35:48.579Z,99056.94
2022-08-16T14:38:23.862Z,99051.41
2022-08-16T14:40:55.304Z,99058.88
2022-08-16T14:43:24.795Z,99053.63
2022-08-16T14:45:51.591Z,99043.03
2022-08-16T14:48:26.313Z,99028.09
2022-08-16T14:50:54.601Z,99047.44
2022-08-16T14:53:23.667Z,99039.72
2022-08-16T14:55:50.766Z,98984.72
2022-08-16T14:58:20.216Z,98969.25
2022-08-16T15:01:02.005Z,99050.13
2022-08-16T15:03:30.151Z,99037.78
2022-08-16T15:06:00.433Z,99030.66
2022-08-16T15:08:36.109Z,99055.47
2022-08-16T15:11:06.123Z,99049.56
2022-08-16T15:13:35.156Z,99056.88
2022-08-16T15:16:03.607Z,99009.47
2022-08-16T15:18:32.305Z,99003.19
2022-08-16T15:21:01.711Z,99046.88
2022-08-16T15:23:28.499Z,99043.69
2022-08-16T15:26:03.012Z,99051.66
2022-08-16T15:28:32.450Z,99018.47
2022-08-16T15:31:04.682Z,99041.59
2022-08-16T15:33:38.902Z,99014.94
2022-08-16T15:36:13.832Z,99055.38
2022-08-16T15:39:03.066Z,98987.16
2022-08-16T15:41:43.671Z,99053.69
2022-08-16T15:44:21.338Z,98980.72
2022-08-16T15:46:55.439Z,99060.84
2022-08-16T15:49:23.018Z,99049.13
2022-08-16T15:51:51.943Z,99049.31
2022-08-16T15:54:30.396Z,99062.72
2022-08-16T15:57:10.962Z,99060.75
2022-08-16T15:59:49.523Z,99054.97
2022-08-16T16:02:29.290Z,99057.13
2022-08-16T16:05:04.300Z,99023.69
2022-08-16T16:07:33.315Z,99058.97
2022-08-16T16:10:01.701Z,99051.63
2022-08-16T16:12:50.799Z,99045.75
2022-08-16T16:15:18.574Z,99036.75
2022-08-16T16:17:45.523Z,99050.31
2022-08-16T16:20:19.731Z,99050.06
2022-08-16T16:22:47.467Z,99039.88
2022-08-16T16:25:15.875Z,99039.59
2022-08-16T16:27:44.103Z,99034.75
2022-08-16T16:30:33.198Z,99036.22
2022-08-16T16:33:00.944Z,99028.69
2022-08-16T16:35:32.787Z,99029.91
2022-08-16T16:38:01.006Z,99029.16
2022-08-16T16:40:32.211Z,99009.03
2022-08-16T16:43:00.535Z,99029.59
2022-08-16T16:45:34.556Z,99015.88
2022-08-16T16:48:12.474Z,99026.03
2022-08-16T16:50:44.559Z,99031.56
2022-08-16T16:53:17.097Z,99028.72
2022-08-16T16:55:51.660Z,99035.81
2022-08-16T16:58:43.542Z,99027.19
2022-08-16T17:01:20.934Z,99005.47
2022-08-16T17:04:19.229Z,99020.19
2022-08-16T17:06:53.570Z,99005.13
2022-08-16T17:09:24.683Z,99017.81
2022-08-16T17:11:55.358Z,99007.88
2022-08-16T17:14:32.105Z,99012.63
2022-08-16T17:17:08.459Z,99003.88
2022-08-16T17:19:41.077Z,99027.88
2022-08-16T17:22:19.750Z,99009.41
2022-08-16T17:24:53.226Z,99001.19
2022-08-16T17:27:32.770Z,99022.81
2022-08-16T17:30:17.069Z,99005.28
2022-08-16T17:32:54.490Z,99004.00
2022-08-16T17:35:34.144Z,99007.34
2022-08-16T17:38:04.699Z,99015.16
2022-08-16T17:40:47.801Z,99019.69
2022-08-16T17:43:29.074Z,99020.16
2022-08-16T17:45:56.602Z,98942.13
2022-08-16T17:48:24.660Z,99001.72
2022-08-16T17:50:54.581Z,99031.31
2022-08-16T17:53:22.463Z,99012.94
2022-08-16T17:55:50.535Z,99031.47
2022-08-16T17:58:23.541Z,99031.13
2022-08-16T18:00:56.599Z,99026.47
2022-08-16T18:04:07.079Z,99043.72
2022-08-16T18:06:24.157Z,99026.47
2022-08-16T18:08:57.863Z,99051.34
2022-08-16T18:11:30.070Z,98975.22
2022-08-16T18:14:00.068Z,99026.84
2022-08-16T18:16:26.958Z,99049.31
2022-08-16T18:18:53.742Z,99038.88
2022-08-16T18:21:38.993Z,99020.75
2022-08-16T18:24:06.151Z,99045.59
2022-08-16T18:26:33.064Z,99023.41
2022-08-16T18:28:59.763Z,99045.19
2022-08-16T18:31:26.698Z,99038.47
2022-08-16T18:33:54.653Z,99057.72
2022-08-16T18:36:24.128Z,99053.53
2022-08-16T18:38:51.828Z,99057.19
2022-08-16T18:41:21.333Z,99059.03
2022-08-16T18:44:14.207Z,99051.81
2022-08-16T18:46:34.799Z,99058.78
2022-08-16T18:49:01.518Z,99036.22
2022-08-16T18:51:28.204Z,99039.72
2022-08-16T18:53:54.883Z,99062.19
2022-08-16T18:56:21.605Z,99021.69
2022-08-16T18:58:49.014Z,99070.94
2022-08-16T19:01:15.891Z,99005.75
2022-08-16T19:03:42.955Z,99064.25
2022-08-16T19:06:13.952Z,99086.84
2022-08-16T19:08:44.042Z,99091.25
2022-08-16T19:11:14.871Z,99086.78
2022-08-16T19:13:44.150Z,99066.72
2022-08-16T19:16:14.854Z,99086.81
2022-08-16T19:18:42.437Z,99095.78
2022-08-16T19:21:14.638Z,99091.44
2022-08-16T19:23:43.612Z,99105.28
2022-08-16T19:26:24.476Z,99105.66
2022-08-16T19:28:58.775Z,99056.69
2022-08-16T19:31:32.917Z,99103.78
2022-08-16T19:34:01.224Z,99074.31
2022-08-16T19:36:35.974Z,99108.00
2022-08-16T19:39:10.419Z,99115.97
2022-08-16T19:41:40.357Z,99069.63
2022-08-16T19:44:07.762Z,99112.41
2022-08-16T19:46:35.451Z,99123.88
2022-08-16T19:49:03.021Z,99113.63
2022-08-16T19:51:29.902Z,99115.09
2022-08-16T19:53:56.549Z,99122.50
2022-08-16T19:56:25.635Z,99097.31
2022-08-16T19:59:17.373Z,99124.38
2022-08-16T20:01:42.238Z,99118.50
2022-08-16T20:04:12.329Z,99126.66
2022-08-16T20:06:43.142Z,99128.38
2022-08-16T20:09:14.743Z,99111.19
2022-08-16T20:11:45.984Z,99108.19
2022-08-16T20:14:24.043Z,99129.34
2022-08-16T20:16:51.981Z,99114.06
2022-08-16T20:19:19.121Z,99141.53
2022-08-16T20:21:46.154Z,99106.53
2022-08-16T20:24:32.459Z,99094.75
2022-08-16T20:26:59.670Z,99094.22
2022-08-16T20:29:27.871Z,99080.03
2022-08-16T20:31:54.929Z,99145.22
2022-08-16T20:34:22.698Z,99112.84
2022-08-16T20:36:49.418Z,99128.00
2022-08-16T20:39:16.312Z,99130.97
2022-08-16T20:41:43.175Z,99123.25
2022-08-16T20:44:11.197Z,99129.97
2022-08-16T20:46:38.985Z,99133.50
2022-08-16T20:49:09.254Z,99151.88
2022-08-16T20:51:50.849Z,99144.09
2022-08-16T20:54:20.942Z,99103.16
2022-08-16T20:56:48.128Z,99146.78
2022-08-16T20:59:15.134Z,99153.31
2022-08-16T21:01:47.039Z,99146.88
2022-08-16T21:04:21.558Z,99152.25
2022-08-16T21:06:53.815Z,99136.09
2022-08-16T21:09:32.615Z,99152.28
2022-08-16T21:12:03.307Z,99168.78
2022-08-16T21:14:33.883Z,99156.66
2022-08-16T21:17:02.407Z,99154.75
2022-08-16T21:19:29.321Z,99144.25
2022-08-16T21:21:56.424Z,99148.03
2022-08-16T21:24:23.430Z,99146.13
2022-08-16T21:26:55.534Z,99139.94
2022-08-16T21:29:38.428Z,99140.47
2022-08-16T21:32:14.658Z,99148.84
2022-08-16T21:34:42.410Z,99174.97
2022-08-16T21:37:10.085Z,99166.09
2022-08-16T21:39:37.322Z,99143.13
2022-08-16T21:42:09.133Z,99163.59
2022-08-16T21:44:38.739Z,99169.53
2022-08-16T21:47:06.549Z,99161.72
2022-08-16T21:49:36.613Z,99163.34
2022-08-16T21:52:04.718Z,99144.72
2022-08-16T21:54:31.469Z,99169.78
2022-08-16T21:56:58.153Z,99182.16
2022-08-16T21:59:24.853Z,99153.88
2022-08-16T22:01:51.601Z,99171.66
2022-08-16T22:04:37.652Z,99163.59
2022-08-16T22:07:05.975Z,99138.75
2022-08-16T22:09:32.874Z,99136.31
2022-08-16T22:11:59.649Z,99142.78
2022-08-16T22:14:26.438Z,99144.13
2022-08-16T22:16:53.256Z,99137.13
2022-08-16T22:19:22.709Z,99183.50
2022-08-16T22:21:49.513Z,99185.91
2022-08-16T22:24:16.277Z,99173.44
2022-08-16T22:26:43.803Z,99113.72
2022-08-16T22:29:13.238Z,99190.88
2022-08-16T22:31:41.506Z,99196.44
2022-08-16T22:34:08.980Z,99187.56
2022-08-16T22:36:36.318Z,99151.91
2022-08-16T22:39:07.223Z,99190.50
2022-08-16T22:41:35.977Z,99166.50
2022-08-16T22:44:04.289Z,99168.38
2022-08-16T22:46:31.416Z,99174.56
2022-08-16T22:48:58.594Z,99195.09
2022-08-16T22:51:27.630Z,99191.06
2022-08-16T22:53:55.669Z,99195.94
2022-08-16T22:56:23.931Z,99177.88
2022-08-16T22:58:50.752Z,99178.09
2022-08-16T23:01:20.417Z,99185.28
2022-08-16T23:03:58.425Z,99162.69
2022-08-16T23:06:25.218Z,99167.00
2022-08-16T23:08:52.093Z,99196.69
2022-08-16T23:11:22.677Z,99182.38
2022-08-16T23:13:54.349Z,99161.81
2022-08-16T23:16:33.532Z,99159.09
2022-08-16T23:19:10.401Z,99189.50
2022-08-16T23:21:39.525Z,99181.81
2022-08-16T23:24:07.514Z,99165.63
2022-08-16T23:26:44.268Z,99195.75
2022-08-16T23:29:24.937Z,99184.63
2022-08-16T23:31:56.207Z,99200.38
2022-08-16T23:34:23.871Z,99190.47
2022-08-16T23:36:50.479Z,99192.56
2022-08-16T23:39:17.197Z,99177.59
2022-08-16T23:41:44.445Z,99192.19
2022-08-16T23:44:54.951Z,99182.56
2022-08-16T23:46:57.798Z,99174.03
2022-08-16T23:49:56.030Z,99170.84
2022-08-16T23:52:11.598Z,99178.81
2022-08-16T23:54:38.467Z,99102.75
2022-08-16T23:57:05.237Z,99171.44
2022-08-16T23:59:37.441Z,99171.16
